TimeEDT,TemperatureF,Dew PointF,Humidity,Sea Level PressureIn,VisibilityMPH,Wind Direction,Wind SpeedMPH,Gust SpeedMPH,PrecipitationIn,Events,Conditions,WindDirDegrees,DateUTC
12:54 AM,54.0,46.9,77,29.81,10.0,NW,9.2,-,N/A,,Mostly Cloudy,320,2013-10-22 04:54:00
1:54 AM,52.0,46.9,83,29.79,10.0,NW,4.6,-,N/A,,Overcast,310,2013-10-22 05:54:00
2:54 AM,52.0,46.9,83,29.78,10.0,NW,3.5,-,N/A,,Overcast,310,2013-10-22 06:54:00
3:54 AM,52.0,46.9,83,29.77,10.0,Calm,Calm,-,0.00,,Overcast,0,2013-10-22 07:54:00
4:54 AM,50.0,46.9,89,29.75,9.0,SSW,3.5,-,0.01,Rain,Light Rain,200,2013-10-22 08:54:00
5:54 AM,50.0,46.9,89,29.74,10.0,Calm,Calm,-,0.03,Rain,Light Rain,0,2013-10-22 09:54:00
6:54 AM,50.0,46.9,89,29.73,9.0,South,5.8,-,0.03,Rain,Light Rain,180,2013-10-22 10:54:00
7:07 AM,48.2,46.4,93,29.75,5.0,West,12.7,20.7,0.02,Rain,Rain,270,2013-10-22 11:07:00
7:15 AM,48.2,44.6,87,29.75,6.0,West,13.8,20.7,0.03,Rain,Light Rain,270,2013-10-22 11:15:00
7:38 AM,48.2,44.6,87,29.76,7.0,WSW,11.5,19.6,0.05,Rain,Light Rain,250,2013-10-22 11:38:00
7:46 AM,46.4,44.6,93,29.76,9.0,West,9.2,-,0.05,Rain,Light Rain,260,2013-10-22 11:46:00
7:54 AM,46.9,43.0,86,29.78,10.0,WSW,11.5,-,0.05,Rain,Light Rain,250,2013-10-22 11:54:00
8:04 AM,46.4,42.8,87,29.77,10.0,West,10.4,-,0.00,Rain,Light Rain,260,2013-10-22 12:04:00
8:11 AM,46.4,42.8,87,29.78,9.0,WSW,9.2,-,0.01,Rain,Light Rain,250,2013-10-22 12:11:00
8:54 AM,46.0,42.1,86,29.81,10.0,SSW,8.1,-,0.01,,Overcast,210,2013-10-22 12:54:00
9:54 AM,46.0,39.9,79,29.81,10.0,WSW,10.4,-,0.00,,Overcast,240,2013-10-22 13:54:00
10:54 AM,48.9,39.0,69,29.81,10.0,West,15.0,19.6,N/A,,Mostly Cloudy,270,2013-10-22 14:54:00
11:54 AM,48.0,35.1,61,29.81,10.0,West,15.0,29.9,N/A,,Mostly Cloudy,280,2013-10-22 15:54:00
12:54 PM,50.0,34.0,54,29.81,10.0,WNW,19.6,25.3,N/A,,Scattered Clouds,290,2013-10-22 16:54:00
1:54 PM,48.9,32.0,52,29.81,10.0,West,12.7,20.7,N/A,,Mostly Cloudy,280,2013-10-22 17:54:00
2:54 PM,48.9,30.0,48,29.80,10.0,West,12.7,25.3,N/A,,Mostly Cloudy,270,2013-10-22 18:54:00
3:54 PM,50.0,27.0,41,29.81,10.0,West,13.8,26.5,N/A,,Partly Cloudy,270,2013-10-22 19:54:00
4:54 PM,48.9,28.9,46,29.81,10.0,West,6.9,-,N/A,,Mostly Cloudy,270,2013-10-22 20:54:00
5:54 PM,48.0,33.1,56,29.82,10.0,WNW,6.9,-,N/A,,Overcast,300,2013-10-22 21:54:00
6:54 PM,48.0,30.9,52,29.83,10.0,West,10.4,-,N/A,,Overcast,260,2013-10-22 22:54:00
7:54 PM,46.0,30.9,56,29.83,10.0,WSW,9.2,-,N/A,,Mostly Cloudy,240,2013-10-22 23:54:00
8:54 PM,44.1,30.0,58,29.83,10.0,SW,6.9,-,N/A,,Clear,230,2013-10-23 00:54:00
9:54 PM,43.0,30.0,60,29.84,10.0,SW,6.9,-,N/A,,Partly Cloudy,230,2013-10-23 01:54:00
10:54 PM,42.1,30.0,62,29.84,10.0,WSW,8.1,-,N/A,,Mostly Cloudy,240,2013-10-23 02:54:00
11:54 PM,39.9,30.0,68,29.83,10.0,WSW,6.9,-,N/A,,Clear,250,2013-10-23 03:54:00